createdAt,value
2023-04-30T00:01:14.614Z,9.23
2023-04-30T00:03:41.871Z,8.68
2023-04-30T00:06:09.090Z,9.18
2023-04-30T00:08:36.275Z,8.70
2023-04-30T00:11:03.335Z,8.70
2023-04-30T00:13:30.466Z,8.48
2023-04-30T00:15:57.625Z,8.02
2023-04-30T00:18:24.732Z,8.85
2023-04-30T00:20:53.547Z,8.95
2023-04-30T00:23:20.627Z,8.50
2023-04-30T00:25:47.831Z,8.25
2023-04-30T00:28:14.912Z,8.52
2023-04-30T00:30:41.959Z,8.48
2023-04-30T00:33:09.060Z,8.10
2023-04-30T00:35:36.153Z,9.63
2023-04-30T00:38:03.241Z,8.57
2023-04-30T00:40:30.585Z,9.70
2023-04-30T00:42:57.784Z,9.75
2023-04-30T00:45:24.872Z,9.88
2023-04-30T00:47:52.275Z,10.70
2023-04-30T00:50:20.006Z,10.02
2023-04-30T00:52:47.172Z,10.25
2023-04-30T00:55:14.679Z,10.50
2023-04-30T00:57:41.860Z,10.00
2023-04-30T01:00:13.532Z,10.85
2023-04-30T01:02:41.495Z,10.95
2023-04-30T01:05:09.505Z,11.65
2023-04-30T01:07:39.520Z,11.38
2023-04-30T01:10:07.957Z,11.52
2023-04-30T01:13:04.171Z,12.10
2023-04-30T01:15:53.428Z,12.25
2023-04-30T01:18:36.598Z,11.77
2023-04-30T01:21:06.254Z,12.63
2023-04-30T01:23:36.019Z,13.10
2023-04-30T01:26:38.018Z,13.40
2023-04-30T01:29:06.955Z,13.50
2023-04-30T01:31:34.038Z,12.05
2023-04-30T01:34:01.193Z,12.73
2023-04-30T01:37:10.579Z,12.52
2023-04-30T01:40:11.586Z,12.15
2023-04-30T01:43:01.355Z,12.50
2023-04-30T01:46:15.936Z,11.65
2023-04-30T01:49:08.436Z,13.05
2023-04-30T01:51:47.339Z,11.80
2023-04-30T01:54:37.223Z,12.60
2023-04-30T01:57:08.112Z,12.02
2023-04-30T01:59:38.615Z,13.20
2023-04-30T02:02:07.132Z,13.68
2023-04-30T02:04:34.483Z,13.40
2023-04-30T02:07:01.678Z,14.02
2023-04-30T02:09:28.973Z,13.10
2023-04-30T02:11:57.883Z,14.02
2023-04-30T02:14:25.377Z,14.60
2023-04-30T02:16:52.465Z,14.57
2023-04-30T02:19:19.518Z,13.88
2023-04-30T02:21:46.745Z,14.98
2023-04-30T02:24:13.806Z,15.10
2023-04-30T02:26:40.869Z,14.70
2023-04-30T02:29:07.991Z,15.68
2023-04-30T02:31:35.089Z,16.75
2023-04-30T02:34:02.215Z,16.23
2023-04-30T02:36:29.633Z,16.08
2023-04-30T02:38:56.748Z,16.10
2023-04-30T02:41:23.893Z,15.43
2023-04-30T02:43:51.699Z,15.57
2023-04-30T02:46:19.305Z,17.17
2023-04-30T02:48:46.393Z,16.60
2023-04-30T02:51:13.438Z,16.40
2023-04-30T02:53:40.708Z,16.60
2023-04-30T02:56:08.353Z,17.45
2023-04-30T02:58:35.918Z,16.73
2023-04-30T03:01:03.483Z,17.42
2023-04-30T03:03:30.669Z,17.00
2023-04-30T03:05:59.553Z,17.48
2023-04-30T03:08:27.507Z,18.48
2023-04-30T03:10:54.696Z,18.08
2023-04-30T03:13:21.902Z,18.20
2023-04-30T03:15:48.971Z,17.63
2023-04-30T03:18:16.141Z,17.48
2023-04-30T03:20:43.244Z,17.88
2023-04-30T03:23:10.307Z,18.30
2023-04-30T03:25:37.396Z,18.40
2023-04-30T03:28:04.803Z,18.38
2023-04-30T03:30:31.936Z,18.98
2023-04-30T03:32:59.016Z,18.95
2023-04-30T03:35:26.226Z,18.33
2023-04-30T03:37:53.433Z,17.88
2023-04-30T03:40:20.692Z,19.65
2023-04-30T03:42:48.913Z,18.50
2023-04-30T03:45:18.122Z,17.98
2023-04-30T03:47:45.438Z,18.88
2023-04-30T03:50:12.755Z,18.60
2023-04-30T03:52:39.987Z,19.10
2023-04-30T03:55:07.582Z,19.25
2023-04-30T03:57:34.706Z,19.08
2023-04-30T04:00:02.184Z,17.63
2023-04-30T04:02:31.907Z,17.92
2023-04-30T04:04:59.178Z,18.08
2023-04-30T04:07:26.342Z,20.30
2023-04-30T04:09:53.495Z,18.73
2023-04-30T04:12:20.678Z,18.30
2023-04-30T04:14:47.837Z,17.52
2023-04-30T04:17:14.887Z,18.20
2023-04-30T04:19:41.975Z,17.10
2023-04-30T04:22:09.053Z,17.33
2023-04-30T04:24:36.608Z,18.25
2023-04-30T04:27:04.229Z,17.90
2023-04-30T04:29:32.239Z,17.63
2023-04-30T04:32:02.751Z,18.17
2023-04-30T04:34:29.838Z,17.80
2023-04-30T04:36:58.266Z,17.33
2023-04-30T04:39:25.420Z,16.92
2023-04-30T04:41:53.018Z,17.58
2023-04-30T04:44:20.355Z,18.00
2023-04-30T04:46:47.481Z,16.52
2023-04-30T04:49:17.597Z,16.15
2023-04-30T04:51:44.694Z,16.60
2023-04-30T04:54:11.828Z,16.80
2023-04-30T04:56:41.773Z,15.45
2023-04-30T04:59:08.859Z,16.13
2023-04-30T05:01:36.541Z,16.55
2023-04-30T05:04:03.889Z,16.58
2023-04-30T05:06:32.243Z,16.50
2023-04-30T05:08:59.546Z,16.08
2023-04-30T05:11:29.273Z,15.60
2023-04-30T05:13:58.254Z,15.88
2023-04-30T05:16:26.576Z,15.35
2023-04-30T05:18:53.640Z,16.15
2023-04-30T05:21:20.733Z,15.35
2023-04-30T05:23:47.790Z,15.00
2023-04-30T05:26:14.891Z,15.55
2023-04-30T05:28:43.081Z,15.38
2023-04-30T05:31:10.188Z,16.13
2023-04-30T05:33:37.243Z,15.68
2023-04-30T05:36:04.814Z,14.10
2023-04-30T05:38:31.924Z,13.95
2023-04-30T05:41:00.483Z,14.50
2023-04-30T05:43:27.570Z,15.27
2023-04-30T05:45:54.685Z,15.18
2023-04-30T05:48:21.780Z,15.23
2023-04-30T05:50:48.859Z,14.63
2023-04-30T05:53:15.911Z,14.57
2023-04-30T05:55:42.999Z,14.00
2023-04-30T05:58:10.060Z,14.23
2023-04-30T06:00:37.883Z,15.38
2023-04-30T06:03:05.029Z,14.73
2023-04-30T06:05:32.182Z,14.68
2023-04-30T06:07:59.286Z,15.35
2023-04-30T06:10:26.791Z,13.80
2023-04-30T06:12:53.970Z,13.18
2023-04-30T06:15:22.021Z,14.25
2023-04-30T06:17:49.069Z,13.93
2023-04-30T06:20:16.397Z,13.95
2023-04-30T06:22:43.516Z,13.35
2023-04-30T06:25:10.747Z,13.95
2023-04-30T06:27:37.896Z,12.80
2023-04-30T06:30:05.796Z,14.52
2023-04-30T06:32:33.115Z,12.68
2023-04-30T06:35:00.300Z,12.57
2023-04-30T06:37:28.389Z,12.75
2023-04-30T06:39:55.734Z,12.60
2023-04-30T06:42:23.088Z,13.43
2023-04-30T06:44:50.207Z,12.90
2023-04-30T06:47:17.374Z,11.35
2023-04-30T06:49:44.456Z,11.98
2023-04-30T06:52:11.545Z,12.70
2023-04-30T06:54:38.598Z,11.82
2023-04-30T06:57:05.773Z,11.23
2023-04-30T06:59:33.040Z,10.90
2023-04-30T07:02:00.192Z,11.18
2023-04-30T07:04:27.849Z,10.98
2023-04-30T07:06:54.926Z,9.88
2023-04-30T07:09:21.982Z,10.27
2023-04-30T07:11:49.301Z,9.32
2023-04-30T07:14:16.366Z,9.63
2023-04-30T07:16:43.839Z,10.15
2023-04-30T07:19:10.889Z,8.65
2023-04-30T07:21:38.022Z,8.27
2023-04-30T07:24:05.690Z,9.45
2023-04-30T07:26:32.862Z,7.13
2023-04-30T07:28:59.902Z,7.40
2023-04-30T07:31:27.134Z,6.80
2023-04-30T07:33:55.887Z,7.30
2023-04-30T07:36:23.202Z,7.20
2023-04-30T07:38:50.371Z,6.85
2023-04-30T07:41:17.482Z,6.72
2023-04-30T07:43:44.666Z,6.68
2023-04-30T07:46:11.966Z,6.63
2023-04-30T07:48:39.140Z,7.15
2023-04-30T07:51:06.308Z,6.82
2023-04-30T07:53:33.397Z,6.95
2023-04-30T07:56:00.490Z,7.40
2023-04-30T07:58:27.649Z,6.93
2023-04-30T08:00:54.730Z,7.53
2023-04-30T08:03:22.064Z,7.00
2023-04-30T08:05:49.285Z,7.68
2023-04-30T08:08:16.375Z,7.05
2023-04-30T08:10:43.719Z,7.95
2023-04-30T08:13:11.185Z,7.45
2023-04-30T08:15:40.050Z,6.55
2023-04-30T08:18:07.452Z,6.15
2023-04-30T08:20:35.996Z,7.30
2023-04-30T08:23:03.722Z,6.50
2023-04-30T08:25:31.972Z,6.38
2023-04-30T08:27:59.788Z,6.45
2023-04-30T08:30:26.869Z,6.55
2023-04-30T08:32:56.774Z,6.85
2023-04-30T08:35:24.980Z,6.78
2023-04-30T08:37:53.252Z,6.82
2023-04-30T08:40:21.991Z,6.82
2023-04-30T08:43:11.870Z,7.05
2023-04-30T08:45:39.146Z,7.10
2023-04-30T08:48:16.475Z,6.30
2023-04-30T08:50:43.689Z,6.57
2023-04-30T08:53:13.250Z,6.55
2023-04-30T08:55:41.017Z,6.47
2023-04-30T08:58:10.785Z,7.13
2023-04-30T09:00:39.880Z,6.20
2023-04-30T09:03:08.584Z,7.85
2023-04-30T09:05:38.486Z,6.70
2023-04-30T09:08:11.320Z,7.22
2023-04-30T09:10:39.077Z,7.05
2023-04-30T09:13:09.339Z,6.47
2023-04-30T09:15:41.742Z,6.00
2023-04-30T09:18:17.441Z,7.03
2023-04-30T09:23:26.536Z,6.40
2023-04-30T09:25:53.965Z,6.05
2023-04-30T09:28:26.474Z,5.75
2023-04-30T09:30:55.860Z,6.30
2023-04-30T09:33:23.136Z,5.97
2023-04-30T09:35:50.441Z,6.43
2023-04-30T09:38:33.109Z,6.13
2023-04-30T09:41:01.979Z,5.57
2023-04-30T09:43:29.881Z,5.30
2023-04-30T09:46:00.311Z,6.07
2023-04-30T09:48:31.651Z,6.10
2023-04-30T09:50:58.904Z,6.03
2023-04-30T09:53:27.072Z,5.35
2023-04-30T09:55:58.517Z,5.45
2023-04-30T09:58:29.285Z,5.80
2023-04-30T10:01:00.018Z,5.43
2023-04-30T10:03:27.427Z,6.00
2023-04-30T10:05:55.693Z,5.03
2023-04-30T10:08:43.611Z,4.82
2023-04-30T10:11:16.758Z,5.45
2023-04-30T10:13:46.363Z,5.20
2023-04-30T10:16:46.155Z,5.43
2023-04-30T10:19:36.383Z,4.68
2023-04-30T10:22:04.065Z,4.95
2023-04-30T10:24:31.384Z,4.60
2023-04-30T10:26:58.625Z,4.93
2023-04-30T10:29:25.938Z,4.88
2023-04-30T10:31:54.762Z,4.90
2023-04-30T10:34:32.973Z,5.05
2023-04-30T10:37:11.767Z,5.45
2023-04-30T10:39:39.191Z,4.70
2023-04-30T10:42:10.002Z,4.88
2023-04-30T10:44:38.440Z,5.38
2023-04-30T10:47:07.065Z,4.63
2023-04-30T10:49:35.000Z,5.25
2023-04-30T10:52:05.043Z,4.55
2023-04-30T10:54:37.316Z,4.65
2023-04-30T10:57:12.736Z,5.07
2023-04-30T10:59:47.431Z,5.00
2023-04-30T11:02:20.009Z,5.03
2023-04-30T11:05:18.096Z,4.90
2023-04-30T11:07:58.466Z,5.03
2023-04-30T11:10:32.171Z,4.93
2023-04-30T11:13:06.103Z,5.05
2023-04-30T11:15:42.312Z,5.30
2023-04-30T11:18:09.933Z,4.70
2023-04-30T11:20:42.286Z,4.85
2023-04-30T11:23:22.108Z,5.45
2023-04-30T11:26:01.628Z,5.18
2023-04-30T11:28:30.995Z,5.97
2023-04-30T11:31:00.537Z,5.55
2023-04-30T11:33:30.282Z,5.75
2023-04-30T11:35:59.516Z,4.85
2023-04-30T11:38:27.531Z,5.78
2023-04-30T11:40:55.481Z,5.30
2023-04-30T11:43:33.777Z,5.82
2023-04-30T11:46:11.988Z,5.68
2023-04-30T11:48:44.819Z,5.38
2023-04-30T11:51:24.996Z,6.00
2023-04-30T11:53:53.442Z,7.40
2023-04-30T11:56:22.577Z,7.57
2023-04-30T11:58:51.650Z,7.80
2023-04-30T12:01:20.208Z,6.95
2023-04-30T12:03:50.438Z,7.60
2023-04-30T12:06:28.856Z,7.65
2023-04-30T12:08:58.683Z,6.88
2023-04-30T12:11:28.440Z,7.10
2023-04-30T12:14:12.600Z,5.88
2023-04-30T12:16:53.260Z,5.32
2023-04-30T12:19:25.182Z,4.10
2023-04-30T12:21:55.134Z,4.00
2023-04-30T12:24:23.783Z,4.07
2023-04-30T12:26:54.164Z,4.43
2023-04-30T12:29:25.021Z,4.65
2023-04-30T12:31:52.458Z,4.45
2023-04-30T12:34:19.695Z,3.75
2023-04-30T12:36:46.927Z,4.45
2023-04-30T12:39:16.439Z,4.25
2023-04-30T12:41:50.365Z,5.03
2023-04-30T12:44:19.041Z,5.18
2023-04-30T12:46:51.357Z,5.72
2023-04-30T12:49:30.593Z,5.00
2023-04-30T12:52:11.501Z,5.25
2023-04-30T12:54:39.709Z,4.78
2023-04-30T12:57:12.430Z,4.90
2023-04-30T12:59:51.783Z,4.88
2023-04-30T13:02:19.072Z,5.53
2023-04-30T13:04:46.330Z,6.25
2023-04-30T13:07:13.645Z,5.78
2023-04-30T13:09:41.144Z,5.50
2023-04-30T13:12:08.689Z,5.15
2023-04-30T13:14:36.599Z,4.65
2023-04-30T13:17:06.827Z,4.97
2023-04-30T13:19:34.830Z,5.68
2023-04-30T13:22:02.006Z,5.32
2023-04-30T13:24:29.150Z,4.55
2023-04-30T13:26:57.842Z,4.10
2023-04-30T13:29:25.433Z,4.97
2023-04-30T13:31:52.744Z,5.22
2023-04-30T13:34:20.060Z,4.95
2023-04-30T13:36:47.229Z,4.63
2023-04-30T13:39:14.412Z,4.72
2023-04-30T13:41:41.467Z,4.53
2023-04-30T13:44:08.617Z,4.45
2023-04-30T13:46:36.148Z,4.40
2023-04-30T13:49:03.699Z,4.53
2023-04-30T13:51:33.286Z,4.70
2023-04-30T13:54:00.476Z,5.07
2023-04-30T13:56:30.121Z,4.45
2023-04-30T13:58:57.185Z,3.83
2023-04-30T14:01:24.531Z,4.30
2023-04-30T14:03:51.830Z,4.57
2023-04-30T14:06:19.066Z,4.38
2023-04-30T14:08:46.221Z,4.43
2023-04-30T14:11:13.321Z,4.30
2023-04-30T14:13:41.502Z,5.22
2023-04-30T14:16:08.890Z,4.53
2023-04-30T14:18:36.038Z,5.03
2023-04-30T14:21:03.315Z,5.15
2023-04-30T14:23:30.510Z,5.45
2023-04-30T14:25:57.757Z,5.50
2023-04-30T14:28:24.970Z,5.22
2023-04-30T14:30:52.038Z,4.93
2023-04-30T14:33:19.107Z,5.10
2023-04-30T14:35:49.039Z,4.00
2023-04-30T14:38:16.191Z,3.65
2023-04-30T14:40:44.774Z,3.97
2023-04-30T14:43:12.028Z,4.30
2023-04-30T14:45:40.435Z,4.32
2023-04-30T14:48:07.824Z,3.47
2023-04-30T14:50:35.175Z,4.03
2023-04-30T14:53:04.248Z,4.25
2023-04-30T14:55:32.628Z,4.63
2023-04-30T14:58:00.692Z,4.25
2023-04-30T15:00:29.158Z,4.18
2023-04-30T15:02:56.348Z,3.60
2023-04-30T15:05:23.610Z,3.03
2023-04-30T15:07:52.703Z,2.80
2023-04-30T15:10:19.894Z,2.80
2023-04-30T15:12:46.959Z,2.75
2023-04-30T15:15:14.236Z,2.90
2023-04-30T15:17:41.685Z,2.60
2023-04-30T15:20:09.362Z,2.97
2023-04-30T15:22:36.765Z,2.90
2023-04-30T15:25:05.475Z,2.60
2023-04-30T15:27:33.936Z,2.45
2023-04-30T15:30:01.264Z,2.70
2023-04-30T15:32:28.360Z,2.60
2023-04-30T15:34:55.496Z,2.58
2023-04-30T15:37:22.611Z,2.40
2023-04-30T15:39:49.896Z,2.80
2023-04-30T15:42:17.164Z,2.70
2023-04-30T15:44:44.349Z,2.30
2023-04-30T15:47:12.740Z,2.80
2023-04-30T15:49:39.944Z,2.90
2023-04-30T15:52:07.190Z,2.33
2023-04-30T15:54:34.289Z,2.60
2023-04-30T15:57:02.210Z,2.83
2023-04-30T15:59:29.436Z,2.78
2023-04-30T16:01:56.656Z,2.47
2023-04-30T16:04:23.765Z,2.67
2023-04-30T16:06:51.272Z,2.67
2023-04-30T16:09:20.477Z,2.90
2023-04-30T16:11:48.430Z,2.50
2023-04-30T16:14:15.605Z,2.72
2023-04-30T16:16:42.866Z,2.42
2023-04-30T16:19:12.666Z,2.95
2023-04-30T16:21:40.607Z,2.35
2023-04-30T16:24:09.700Z,2.53
2023-04-30T16:26:37.479Z,2.45
2023-04-30T16:29:05.104Z,2.55
2023-04-30T16:31:32.844Z,2.90
2023-04-30T16:34:00.095Z,2.30
2023-04-30T16:36:28.119Z,2.80
2023-04-30T16:38:55.467Z,2.72
2023-04-30T16:41:22.666Z,2.80
2023-04-30T16:43:49.784Z,2.53
2023-04-30T16:46:17.729Z,2.67
2023-04-30T16:48:45.476Z,2.92
2023-04-30T16:51:13.871Z,2.78
2023-04-30T16:53:41.297Z,2.80
2023-04-30T16:56:08.804Z,2.95
2023-04-30T16:58:36.008Z,3.15
2023-04-30T17:01:03.668Z,3.25
2023-04-30T17:03:31.089Z,3.60
2023-04-30T17:05:58.308Z,2.88
2023-04-30T17:08:26.093Z,3.80
2023-04-30T17:10:53.623Z,3.08
2023-04-30T17:13:20.956Z,3.10
2023-04-30T17:15:49.082Z,2.92
2023-04-30T17:18:16.657Z,2.80
2023-04-30T17:20:45.644Z,2.90
2023-04-30T17:23:13.179Z,3.33
2023-04-30T17:25:40.608Z,2.90
2023-04-30T17:28:07.916Z,3.05
2023-04-30T17:30:36.483Z,2.80
2023-04-30T17:33:04.709Z,2.88
2023-04-30T17:35:32.123Z,2.80
2023-04-30T17:37:59.806Z,2.38
2023-04-30T17:40:27.628Z,2.83
2023-04-30T17:42:54.932Z,2.95
2023-04-30T17:45:23.390Z,3.47
2023-04-30T17:47:51.075Z,3.30
2023-04-30T17:50:19.049Z,3.15
2023-04-30T17:52:47.091Z,3.22
2023-04-30T17:55:15.403Z,3.28
2023-04-30T17:57:43.461Z,3.30
2023-04-30T18:00:12.208Z,3.22
2023-04-30T18:02:40.054Z,3.15
2023-04-30T18:05:08.866Z,3.42
2023-04-30T18:07:36.462Z,3.38
2023-04-30T18:10:04.688Z,3.40
2023-04-30T18:12:32.283Z,3.40
2023-04-30T18:14:59.569Z,3.50
2023-04-30T18:17:26.963Z,3.70
2023-04-30T18:19:54.860Z,3.10
2023-04-30T18:22:22.545Z,3.70
2023-04-30T18:24:50.322Z,4.00
2023-04-30T18:27:17.979Z,3.85
2023-04-30T18:29:45.604Z,3.80
2023-04-30T18:32:12.794Z,3.50
2023-04-30T18:34:40.307Z,3.75
2023-04-30T18:37:07.584Z,3.58
2023-04-30T18:39:35.084Z,4.25
2023-04-30T18:42:04.043Z,3.88
2023-04-30T18:44:32.715Z,4.30
2023-04-30T18:47:00.484Z,5.28
2023-04-30T18:49:28.050Z,4.85
2023-04-30T18:51:55.418Z,4.90
2023-04-30T18:54:23.606Z,4.70
2023-04-30T18:56:51.679Z,4.28
2023-04-30T18:59:21.147Z,4.93
2023-04-30T19:01:52.163Z,4.88
2023-04-30T19:04:19.470Z,4.75
2023-04-30T19:06:49.712Z,4.57
2023-04-30T19:09:17.793Z,5.15
2023-04-30T19:11:45.639Z,4.70
2023-04-30T19:14:13.361Z,4.47
2023-04-30T19:16:41.105Z,4.78
2023-04-30T19:19:08.854Z,5.00
2023-04-30T19:21:36.471Z,4.47
2023-04-30T19:24:04.353Z,4.95
2023-04-30T19:26:34.207Z,5.07
2023-04-30T19:29:03.845Z,4.97
2023-04-30T19:31:31.981Z,5.95
2023-04-30T19:34:01.580Z,5.60
2023-04-30T19:36:29.730Z,5.45
2023-04-30T19:38:59.225Z,5.45
2023-04-30T19:41:28.328Z,6.07
2023-04-30T19:43:56.972Z,6.38
2023-04-30T19:46:25.325Z,7.13
2023-04-30T19:48:53.338Z,6.65
2023-04-30T19:51:21.024Z,7.95
2023-04-30T19:53:52.714Z,7.57
2023-04-30T19:56:23.944Z,7.65
2023-04-30T19:58:52.042Z,7.97
2023-04-30T20:01:20.257Z,7.13
2023-04-30T20:03:48.181Z,7.72
2023-04-30T20:06:15.720Z,8.05
2023-04-30T20:08:43.653Z,8.23
2023-04-30T20:11:11.293Z,7.78
2023-04-30T20:13:38.777Z,8.05
2023-04-30T20:16:06.339Z,8.77
2023-04-30T20:18:34.322Z,9.32
2023-04-30T20:21:02.151Z,8.63
2023-04-30T20:23:29.946Z,9.27
2023-04-30T20:25:58.621Z,9.18
2023-04-30T20:28:27.583Z,10.35
2023-04-30T20:30:56.256Z,9.93
2023-04-30T20:33:26.041Z,11.13
2023-04-30T20:35:53.250Z,10.38
2023-04-30T20:38:21.790Z,10.23
2023-04-30T20:40:49.306Z,10.52
2023-04-30T20:43:18.473Z,10.30
2023-04-30T20:45:46.898Z,9.77
2023-04-30T20:48:14.936Z,9.25
2023-04-30T20:50:42.646Z,9.30
2023-04-30T20:53:11.349Z,9.27
2023-04-30T20:55:38.704Z,9.18
2023-04-30T20:58:05.921Z,9.38
2023-04-30T21:00:33.019Z,9.15
2023-04-30T21:03:00.155Z,8.73
2023-04-30T21:05:28.658Z,8.90
2023-04-30T21:08:01.017Z,9.00
2023-04-30T21:10:35.342Z,8.35
2023-04-30T21:13:05.401Z,9.60
2023-04-30T21:15:36.329Z,7.75
2023-04-30T21:18:03.942Z,8.27
2023-04-30T21:20:32.042Z,8.43
2023-04-30T21:22:59.362Z,9.40
2023-04-30T21:25:26.782Z,9.25
2023-04-30T21:27:53.842Z,8.88
2023-04-30T21:30:24.234Z,7.97
2023-04-30T21:32:58.065Z,7.13
2023-04-30T21:35:25.967Z,8.00
2023-04-30T21:37:53.680Z,7.40
2023-04-30T21:40:22.000Z,7.35
2023-04-30T21:42:49.106Z,7.60
2023-04-30T21:45:16.343Z,7.10
2023-04-30T21:47:44.763Z,6.65
2023-04-30T21:50:12.363Z,6.60
2023-04-30T21:52:39.603Z,6.95
2023-04-30T21:55:07.910Z,7.70
2023-04-30T21:57:35.566Z,6.13
2023-04-30T22:00:04.582Z,6.50
2023-04-30T22:02:33.130Z,5.68
2023-04-30T22:05:00.959Z,6.18
2023-04-30T22:07:28.203Z,6.13
2023-04-30T22:09:55.791Z,6.82
2023-04-30T22:12:25.221Z,6.53
2023-04-30T22:14:55.679Z,5.85
2023-04-30T22:17:23.130Z,6.38
2023-04-30T22:19:50.427Z,6.38
2023-04-30T22:22:17.663Z,6.25
2023-04-30T22:24:44.743Z,6.45
2023-04-30T22:27:12.118Z,5.82
2023-04-30T22:29:39.190Z,5.68
2023-04-30T22:32:07.224Z,5.72
2023-04-30T22:34:40.036Z,5.50
2023-04-30T22:37:10.964Z,5.70
2023-04-30T22:39:39.013Z,6.38
2023-04-30T22:42:06.306Z,5.57
2023-04-30T22:44:33.709Z,5.55
2023-04-30T22:47:02.520Z,5.85
2023-04-30T22:49:33.012Z,5.78
2023-04-30T22:52:01.355Z,6.07
2023-04-30T22:54:28.891Z,6.15
2023-04-30T22:56:55.986Z,5.90
2023-04-30T22:59:23.140Z,5.47
2023-04-30T23:01:50.273Z,5.60
2023-04-30T23:04:17.466Z,5.90
2023-04-30T23:06:44.843Z,5.35
2023-04-30T23:09:12.803Z,5.88
2023-04-30T23:11:39.988Z,5.43
2023-04-30T23:14:07.108Z,5.20
2023-04-30T23:16:34.250Z,5.75
2023-04-30T23:19:01.479Z,5.65
2023-04-30T23:21:28.615Z,5.68
2023-04-30T23:23:55.693Z,5.32
2023-04-30T23:26:22.861Z,5.85
2023-04-30T23:28:49.974Z,4.93
2023-04-30T23:31:18.173Z,5.43
2023-04-30T23:33:45.195Z,5.40
2023-04-30T23:36:12.349Z,5.43
2023-04-30T23:38:39.537Z,5.13
2023-04-30T23:41:06.565Z,5.72
2023-04-30T23:43:33.648Z,5.20
2023-04-30T23:46:00.883Z,5.85
2023-04-30T23:48:28.064Z,6.10
2023-04-30T23:51:03.517Z,6.30
2023-04-30T23:53:31.495Z,6.00
2023-04-30T23:55:59.378Z,5.82
2023-04-30T23:58:27.832Z,5.97
